Time;durP1;ratioP1;P1;durP2;ratioP2;P2;SDS_P1;SDS_P2;PMS_P1;PMS_P2;Temp;Humidity;BMP_temperature;BMP_pressure;BME280_temperature;BME280_humidity;BME280_pressure;Samples;Min_cycle;Max_cycle;Signal;HPM_P1;HPM_P2
2021/03/20 00:01:16;;;;;;;10.32;6.68;;;;;;;2.27;57.14;100756.34;5103556;28;20039;-72
2021/03/20 00:04:21;;;;;;;9.45;5.60;;;;;;;2.24;57.31;100756.47;5104052;28;20063;-74
2021/03/20 00:07:25;;;;;;;8.13;5.45;;;;;;;2.28;57.51;100758.03;5104908;28;20041;-74
2021/03/20 00:10:30;;;;;;;8.10;5.88;;;;;;;2.30;56.94;100753.53;5092705;28;20489;-74
2021/03/20 00:13:34;;;;;;;8.50;5.13;;;;;;;2.43;56.32;100757.31;5105745;28;20055;-74
2021/03/20 00:16:39;;;;;;;7.88;5.10;;;;;;;2.47;56.42;100757.09;5105585;28;20050;-75
2021/03/20 00:19:43;;;;;;;10.00;5.70;;;;;;;2.52;55.85;100760.38;5104202;28;20047;-75
2021/03/20 00:22:47;;;;;;;8.10;5.90;;;;;;;2.53;56.09;100758.59;5104628;28;20051;-74
2021/03/20 00:25:52;;;;;;;7.57;5.82;;;;;;;2.51;56.30;100755.16;5105511;28;20055;-75
2021/03/20 00:28:58;;;;;;;9.07;5.57;;;;;;;2.50;55.86;100750.78;5105402;28;20058;-72
2021/03/20 00:32:02;;;;;;;12.27;5.43;;;;;;;2.24;56.49;100756.47;5103618;28;20502;-74
2021/03/20 00:35:08;;;;;;;8.77;5.65;;;;;;;2.17;56.69;100747.13;5104324;28;20042;-74
2021/03/20 00:38:14;;;;;;;6.70;5.25;;;;;;;2.10;56.97;100756.28;5092739;28;20050;-75
2021/03/20 00:41:18;;;;;;;8.05;5.57;;;;;;;2.00;57.34;100750.53;5093109;28;20043;-74
2021/03/20 00:44:22;;;;;;;8.57;5.47;;;;;;;1.92;57.92;100748.25;5103488;28;20039;-75
2021/03/20 00:47:27;;;;;;;10.93;5.72;;;;;;;1.81;58.01;100742.59;5104185;28;20039;-74
2021/03/20 00:50:31;;;;;;;9.05;5.95;;;;;;;1.82;58.30;100736.38;5104587;28;20043;-74
2021/03/20 00:53:36;;;;;;;9.32;5.82;;;;;;;1.76;58.38;100734.00;5104919;28;20050;-75
2021/03/20 00:56:41;;;;;;;10.10;5.13;;;;;;;1.81;58.56;100739.94;5092607;28;20038;-74
2021/03/20 00:59:47;;;;;;;7.13;5.30;;;;;;;1.84;58.32;100739.81;5103635;28;20390;-75
2021/03/20 01:02:52;;;;;;;8.27;5.07;;;;;;;1.87;58.17;100738.81;5104408;28;20039;-75
2021/03/20 01:05:56;;;;;;;9.00;5.95;;;;;;;1.97;58.03;100743.59;5104662;28;20046;-74
2021/03/20 01:09:01;;;;;;;9.10;6.00;;;;;;;2.07;57.99;100745.81;5089791;28;20039;-74
2021/03/20 01:12:06;;;;;;;9.02;5.60;;;;;;;2.18;57.70;100749.69;5103514;28;20067;-74
2021/03/20 01:15:11;;;;;;;7.85;5.15;;;;;;;2.23;57.49;100741.50;5104020;28;20051;-73
2021/03/20 01:18:16;;;;;;;7.05;5.10;;;;;;;2.27;57.08;100745.75;5092112;28;20055;-73
2021/03/20 01:21:23;;;;;;;6.13;4.72;;;;;;;2.28;57.55;100748.31;5089565;28;20046;-74
2021/03/20 01:24:27;;;;;;;7.53;5.40;;;;;;;2.24;57.60;100751.19;5087279;28;20390;-74
2021/03/20 01:27:32;;;;;;;6.63;5.05;;;;;;;2.23;57.48;100747.66;5104104;28;20047;-75
2021/03/20 01:30:41;;;;;;;7.00;4.90;;;;;;;2.10;57.61;100738.56;5104642;28;20058;-74
2021/03/20 01:33:45;;;;;;;8.93;5.95;;;;;;;1.98;57.00;100732.06;5103447;28;20050;-74
2021/03/20 01:36:50;;;;;;;8.80;5.47;;;;;;;2.00;57.24;100733.81;5103521;28;20059;-73
2021/03/20 01:39:54;;;;;;;7.28;4.93;;;;;;;1.93;57.38;100728.78;5104299;28;20067;-73
2021/03/20 01:42:59;;;;;;;9.95;5.22;;;;;;;2.02;57.02;100729.28;5104278;28;20058;-74
2021/03/20 01:46:38;;;;;;;6.82;5.22;;;;;;;2.03;56.60;100731.00;5103035;28;20047;-74
2021/03/20 01:49:46;;;;;;;9.18;5.30;;;;;;;1.94;56.59;100729.66;5102350;28;20055;-75
2021/03/20 01:52:55;;;;;;;10.25;6.82;;;;;;;1.91;56.69;100732.44;5103535;28;20118;-75
2021/03/20 01:56:00;;;;;;;7.30;5.22;;;;;;;1.83;56.69;100729.28;5104025;28;20493;-74
2021/03/20 01:59:05;;;;;;;7.90;5.20;;;;;;;1.80;57.00;100724.97;5089290;28;20387;-74
2021/03/20 02:02:10;;;;;;;9.55;5.28;;;;;;;1.70;56.86;100722.84;5090987;28;20047;-75
2021/03/20 02:05:18;;;;;;;8.60;5.28;;;;;;;1.58;57.34;100723.41;5103957;28;20055;-74
2021/03/20 02:08:23;;;;;;;6.78;5.20;;;;;;;1.52;57.48;100718.38;5089887;28;20051;-75
2021/03/20 02:11:33;;;;;;;8.48;5.55;;;;;;;1.52;57.84;100719.25;5095878;28;20046;-74
2021/03/20 02:14:50;;;;;;;7.53;5.35;;;;;;;1.50;57.75;100723.75;5092881;28;20494;-74
2021/03/20 02:18:00;;;;;;;9.38;5.60;;;;;;;1.58;57.73;100723.41;5095114;28;20055;-74
2021/03/20 02:21:29;;;;;;;7.43;5.38;;;;;;;1.67;57.83;100725.63;5094200;28;20047;-74
2021/03/20 02:24:52;;;;;;;7.57;5.30;;;;;;;1.69;57.77;100724.63;5107573;28;20039;-74
2021/03/20 02:28:30;;;;;;;9.15;5.00;;;;;;;1.70;57.37;100718.41;5092416;28;20055;-74
2021/03/20 02:31:56;;;;;;;6.70;4.82;;;;;;;1.73;57.54;100717.38;5094965;28;20047;-75
2021/03/20 02:35:21;;;;;;;8.30;5.40;;;;;;;1.58;58.58;100716.31;5105909;28;20071;-74
2021/03/20 02:38:39;;;;;;;6.65;5.03;;;;;;;1.61;58.82;100716.16;5106063;28;20438;-73
2021/03/20 02:42:23;;;;;;;7.00;5.13;;;;;;;1.55;58.95;100719.13;5105946;28;20043;-72
2021/03/20 02:45:42;;;;;;;6.80;4.90;;;;;;;1.53;58.87;100713.00;5026614;28;20033;-73
2021/03/20 02:49:07;;;;;;;8.30;4.97;;;;;;;1.57;58.60;100711.09;5026482;28;20044;-75
2021/03/20 02:52:24;;;;;;;7.90;4.97;;;;;;;1.60;58.50;100711.81;5032531;28;20044;-74
2021/03/20 02:55:41;;;;;;;6.38;4.60;;;;;;;1.62;58.74;100709.97;5032002;28;20048;-74
2021/03/20 02:58:51;;;;;;;7.63;5.28;;;;;;;1.68;58.18;100714.97;5016326;28;20056;-74
2021/03/20 03:02:00;;;;;;;9.48;4.95;;;;;;;1.69;57.95;100714.03;5033245;28;20509;-74
2021/03/20 03:05:13;;;;;;;8.40;5.25;;;;;;;1.55;58.44;100708.53;5031526;28;20128;-74
2021/03/20 03:08:20;;;;;;;9.57;4.83;;;;;;;1.56;58.58;100710.22;5016259;28;20048;-74
2021/03/20 03:11:44;;;;;;;10.32;5.18;;;;;;;1.56;58.36;100715.53;5033700;28;20352;-75
2021/03/20 03:15:08;;;;;;;6.47;5.00;;;;;;;1.41;58.42;100720.66;5031602;28;20452;-74
2021/03/20 03:18:20;;;;;;;6.32;4.80;;;;;;;1.35;58.64;100719.13;5032170;28;20064;-74
2021/03/20 03:21:27;;;;;;;8.63;5.10;;;;;;;1.31;58.66;100718.41;5050915;28;20043;-73
2021/03/20 03:24:33;;;;;;;7.88;5.05;;;;;;;1.31;58.76;100718.41;5106042;28;20047;-75
2021/03/20 03:27:40;;;;;;;7.95;5.13;;;;;;;1.27;58.81;100724.75;5106556;28;20051;-75
2021/03/20 03:30:27;;;;;;;8.88;5.22;;;;;;;1.28;58.88;100712.41;5105078;28;20039;-74
2021/03/20 03:33:55;;;;;;;5.72;4.63;;;;;;;1.24;58.78;100716.97;5105786;28;20043;-75
2021/03/20 03:37:21;;;;;;;7.97;4.85;;;;;;;1.24;58.32;100726.66;5103783;28;20501;-75
2021/03/20 03:41:01;;;;;;;6.15;4.55;;;;;;;1.22;57.61;100720.59;5104939;28;20043;-75
2021/03/20 03:44:07;;;;;;;8.55;4.90;;;;;;;1.23;57.86;100711.75;5030833;28;20400;-75
2021/03/20 03:47:16;;;;;;;6.60;4.68;;;;;;;1.20;57.76;100717.16;5031364;28;20133;-73
2021/03/20 03:50:30;;;;;;;8.45;5.18;;;;;;;1.15;57.64;100720.00;5032454;28;20137;-75
2021/03/20 03:53:35;;;;;;;9.07;4.95;;;;;;;1.10;57.72;100721.13;5020157;28;20040;-74
2021/03/20 03:57:08;;;;;;;6.72;4.93;;;;;;;1.07;57.97;100716.84;5032010;28;20044;-72
2021/03/20 04:00:44;;;;;;;8.25;5.35;;;;;;;0.94;58.16;100730.66;5027982;28;20413;-74
2021/03/20 04:04:17;;;;;;;7.20;5.32;;;;;;;0.83;58.66;100720.53;5032240;28;20056;-74
2021/03/20 04:08:00;;;;;;;7.45;4.97;;;;;;;0.77;59.08;100722.56;5029671;28;20476;-74
2021/03/20 04:11:28;;;;;;;6.80;4.60;;;;;;;0.79;59.36;100729.50;5018562;28;20049;-74
2021/03/20 04:14:51;;;;;;;7.90;5.40;;;;;;;0.85;59.05;100729.25;5028321;28;20041;-74
2021/03/20 04:18:14;;;;;;;7.47;4.80;;;;;;;0.84;59.22;100729.31;5074581;28;20055;-74
2021/03/20 04:21:42;;;;;;;6.90;4.85;;;;;;;0.80;59.45;100740.94;5104546;28;20042;-75
2021/03/20 04:24:50;;;;;;;7.90;4.68;;;;;;;0.81;59.00;100735.59;5103017;28;20065;-74
2021/03/20 04:28:07;;;;;;;7.60;5.00;;;;;;;0.81;59.08;100735.59;5105372;28;20070;-74
2021/03/20 04:31:47;;;;;;;10.30;5.25;;;;;;;0.84;58.78;100739.88;5091889;28;20051;-75
2021/03/20 04:34:56;;;;;;;6.22;4.63;;;;;;;0.85;58.34;100739.81;5111306;28;20055;-74
2021/03/20 04:38:02;;;;;;;6.65;4.70;;;;;;;0.72;58.82;100741.25;5104996;28;20066;-74
2021/03/20 04:41:09;;;;;;;6.22;4.50;;;;;;;0.70;59.22;100742.22;5103755;28;20040;-75
2021/03/20 04:44:14;;;;;;;6.20;4.80;;;;;;;0.69;59.32;100740.53;5078186;28;20055;-74
2021/03/20 04:47:21;;;;;;;8.05;4.47;;;;;;;0.64;59.42;100740.72;5105010;28;20046;-75
2021/03/20 04:50:27;;;;;;;7.18;4.78;;;;;;;0.58;59.34;100733.91;5103398;28;20043;-72
2021/03/20 04:53:32;;;;;;;6.38;4.60;;;;;;;0.50;59.33;100743.03;5104176;28;20043;-75
2021/03/20 04:57:09;;;;;;;7.30;4.57;;;;;;;0.51;59.12;100737.72;5092324;28;20130;-75
2021/03/20 05:00:32;;;;;;;7.25;4.45;;;;;;;0.54;58.63;100744.66;5056797;28;20062;-74
2021/03/20 05:03:44;;;;;;;7.05;4.50;;;;;;;0.57;58.83;100733.94;5092344;28;20067;-75
2021/03/20 05:06:51;;;;;;;6.82;4.85;;;;;;;0.54;59.17;100742.84;5099526;28;20062;-75
2021/03/20 05:09:57;;;;;;;7.60;5.00;;;;;;;0.57;59.28;100742.72;5104688;28;20051;-74
2021/03/20 05:13:04;;;;;;;7.15;5.00;;;;;;;0.46;59.58;100749.38;5104992;28;20050;-74
2021/03/20 05:16:17;;;;;;;8.85;5.28;;;;;;;0.42;59.85;100743.34;5093079;28;20066;-73
2021/03/20 05:19:23;;;;;;;8.32;5.13;;;;;;;0.37;60.21;100742.66;5094518;28;20046;-73
2021/03/20 05:22:37;;;;;;;8.07;4.95;;;;;;;0.33;60.23;100742.84;5101776;28;20414;-75
2021/03/20 05:25:41;;;;;;;8.52;4.88;;;;;;;0.40;60.51;100749.59;5102094;28;20039;-73
2021/03/20 05:28:45;;;;;;;10.13;5.45;;;;;;;0.35;60.07;100739.25;5104350;28;20046;-74
2021/03/20 05:31:50;;;;;;;6.80;5.00;;;;;;;0.38;59.74;100746.19;5072811;28;20044;-75
2021/03/20 05:34:57;;;;;;;10.18;5.45;;;;;;;0.37;60.03;100747.94;5063506;28;20059;-75
2021/03/20 05:38:02;;;;;;;6.13;4.88;;;;;;;0.34;60.11;100749.88;5063868;28;20055;-75
2021/03/20 05:41:30;;;;;;;8.63;5.80;;;;;;;0.36;59.87;100756.81;5063733;28;20396;-74
2021/03/20 05:45:04;;;;;;;11.07;6.68;;;;;;;0.43;59.85;100760.91;5056029;28;20048;-73
2021/03/20 05:48:17;;;;;;;;;;;;;;;0.49;59.32;100752.75;5046640;28;20391;-74
2021/03/20 05:51:46;;;;;;;11.55;6.25;;;;;;;0.63;58.82;100746.91;5063740;28;19917;-75
2021/03/20 05:55:23;;;;;;;51.53;27.38;;;;;;;0.71;58.65;100754.53;5062127;28;20064;-75
2021/03/20 05:59:00;;;;;;;31.98;18.98;;;;;;;0.85;58.84;100754.81;5061697;28;20404;-74
2021/03/20 06:02:10;;;;;;;16.83;7.75;;;;;;;1.06;57.56;100751.28;5063579;28;20063;-72
2021/03/20 06:05:25;;;;;;;13.93;7.90;;;;;;;1.28;56.66;100752.06;5063848;28;20048;-73
2021/03/20 06:09:04;;;;;;;19.58;9.10;;;;;;;1.47;56.15;100749.47;5063160;28;20044;-70
2021/03/20 06:12:45;;;;;;;16.73;6.90;;;;;;;1.63;55.30;100746.06;5000525;28;20576;-71
2021/03/20 06:16:23;;;;;;;9.43;6.35;;;;;;;1.76;54.85;100741.94;4989161;28;20041;-74
2021/03/20 06:19:48;;;;;;;7.05;5.13;;;;;;;2.04;54.23;100754.78;5001933;28;20556;-74
2021/03/20 06:23:04;;;;;;;7.75;5.50;;;;;;;2.24;53.41;100752.03;4989390;28;20150;-73
2021/03/20 06:26:25;;;;;;;8.13;5.05;;;;;;;2.40;52.65;100746.84;5001868;28;20520;-73
2021/03/20 06:29:35;;;;;;;7.00;4.88;;;;;;;2.66;52.17;100762.38;4998094;28;20141;-73
2021/03/20 06:32:50;;;;;;;9.90;4.68;;;;;;;2.93;51.31;100766.31;5005667;28;20053;-75
2021/03/20 06:36:16;;;;;;;;;;;;;;;2.83;51.29;100766.84;5021997;28;20168;-75
2021/03/20 06:39:33;;;;;;;8.02;4.85;;;;;;;3.02;51.18;100765.84;5021157;28;19918;-74
2021/03/20 06:42:37;;;;;;;7.30;5.18;;;;;;;3.21;50.56;100765.75;5021454;28;20053;-75
2021/03/20 06:45:43;;;;;;;9.15;5.85;;;;;;;3.42;50.62;100772.63;5021371;28;20057;-73
2021/03/20 06:48:48;;;;;;;10.13;6.10;;;;;;;3.38;50.49;100770.22;5029949;28;20048;-74
2021/03/20 06:51:54;;;;;;;9.10;5.63;;;;;;;3.67;50.02;100780.16;5059903;28;20048;-74
2021/03/20 06:55:06;;;;;;;9.02;5.53;;;;;;;4.28;48.69;100772.38;5056873;28;20491;-74
2021/03/20 06:58:25;;;;;;;11.63;5.40;;;;;;;4.67;47.63;100782.63;5064273;28;20499;-74
2021/03/20 07:01:39;;;;;;;9.30;5.07;;;;;;;4.58;47.94;100782.19;5066603;28;20047;-73
2021/03/20 07:04:52;;;;;;;6.50;4.85;;;;;;;4.75;47.85;100775.91;5063784;28;20040;-75
2021/03/20 07:08:22;;;;;;;9.95;5.05;;;;;;;5.19;46.82;100775.97;5066555;28;20151;-73
2021/03/20 07:11:31;;;;;;;8.20;4.43;;;;;;;5.42;46.25;100780.78;5063639;28;20048;-73
2021/03/20 07:14:57;;;;;;;14.65;6.30;;;;;;;5.65;46.56;100780.25;5063554;28;20048;-72
2021/03/20 07:18:30;;;;;;;9.13;5.07;;;;;;;6.61;45.91;100780.44;5059858;28;20063;-74
2021/03/20 07:21:46;;;;;;;10.70;5.55;;;;;;;10.71;38.72;100782.25;5066434;28;20044;-72
2021/03/20 07:24:50;;;;;;;9.55;5.50;;;;;;;14.45;30.33;100758.25;5064537;28;20044;-73
2021/03/20 07:31:03;;;;;;;11.95;4.93;;;;;;;14.23;29.09;100767.56;5066095;28;20040;-74
2021/03/20 07:34:16;;;;;;;13.20;4.53;;;;;;;14.05;29.22;100776.53;5056340;28;20064;-73
2021/03/20 07:37:24;;;;;;;16.13;5.30;;;;;;;14.41;29.20;100778.47;5063138;28;20122;-73
2021/03/20 07:40:32;;;;;;;11.50;5.30;;;;;;;13.93;29.74;100777.72;5066716;28;20059;-72
2021/03/20 07:43:37;;;;;;;15.77;6.13;;;;;;;13.90;30.50;100789.66;5065977;28;20502;-73
2021/03/20 07:46:42;;;;;;;9.05;7.30;;;;;;;16.81;27.11;100782.56;5062958;28;20044;-72
2021/03/20 07:49:47;;;;;;;8.55;6.07;;;;;;;19.14;23.42;100781.47;5065670;28;20404;-75
2021/03/20 07:53:15;;;;;;;8.52;6.43;;;;;;;22.46;20.96;100768.91;5060076;28;20400;-75
2021/03/20 07:56:26;;;;;;;11.23;6.60;;;;;;;27.29;16.31;100761.00;5052783;28;20404;-76
2021/03/20 07:59:31;;;;;;;9.02;6.90;;;;;;;29.55;15.36;100764.69;5065303;28;20391;-80
2021/03/20 08:02:41;;;;;;;10.38;5.72;;;;;;;31.86;13.89;100763.50;5062333;28;20051;-80
2021/03/20 08:05:46;;;;;;;9.25;6.90;;;;;;;32.79;12.80;100758.09;5062641;28;20061;-78
2021/03/20 08:09:19;;;;;;;9.20;7.00;;;;;;;33.82;12.53;100767.34;5063134;28;20111;-82
2021/03/20 08:12:23;;;;;;;10.98;7.43;;;;;;;34.42;12.17;100760.06;5064914;28;20051;-81
2021/03/20 08:15:37;;;;;;;8.50;7.60;;;;;;;34.92;12.32;100762.75;5061723;28;20063;-83
2021/03/20 08:18:42;;;;;;;9.65;7.00;;;;;;;34.74;11.99;100771.72;5059219;28;20119;-77
2021/03/20 08:22:13;;;;;;;8.32;6.13;;;;;;;35.16;12.26;100779.69;5061064;28;20404;-80
2021/03/20 08:25:37;;;;;;;13.02;7.03;;;;;;;35.68;11.32;100779.13;5064904;28;20055;-78
2021/03/20 08:28:58;;;;;;;13.07;7.18;;;;;;;35.97;11.97;100780.03;5065037;28;20048;-78
2021/03/20 08:32:16;;;;;;;12.48;7.47;;;;;;;37.20;10.96;100782.13;5082886;28;20059;-74
2021/03/20 08:35:20;;;;;;;8.98;7.35;;;;;;;37.86;10.59;100779.22;5103698;28;20054;-74
2021/03/20 08:38:35;;;;;;;8.50;7.70;;;;;;;36.26;12.03;100786.50;5104052;28;20394;-76
2021/03/20 08:42:18;;;;;;;11.70;7.80;;;;;;;35.58;11.90;100791.19;5093662;28;20055;-75
2021/03/20 08:45:53;;;;;;;9.00;7.90;;;;;;;35.37;12.16;100786.00;5093939;28;20055;-75
2021/03/20 08:49:06;;;;;;;12.07;7.80;;;;;;;35.49;12.21;100784.53;5094231;28;20051;-75
2021/03/20 08:52:46;;;;;;;14.43;7.70;;;;;;;36.17;11.61;100793.84;5081799;28;20051;-75
2021/03/20 08:56:02;;;;;;;12.38;7.80;;;;;;;35.42;12.40;100788.75;5094104;28;20399;-74
2021/03/20 08:59:14;;;;;;;15.02;7.32;;;;;;;35.46;11.94;100795.44;5093944;28;20107;-75
2021/03/20 09:02:25;;;;;;;12.70;8.38;;;;;;;34.56;13.09;100792.72;5081563;28;20094;-76
2021/03/20 09:05:36;;;;;;;25.90;8.85;;;;;;;34.14;13.28;100786.59;5081083;28;20529;-85
2021/03/20 09:08:43;;;;;;;11.77;8.00;;;;;;;34.88;12.47;100788.72;5093819;28;20055;-76
2021/03/20 09:12:01;;;;;;;19.10;8.05;;;;;;;35.29;11.97;100793.03;5081472;28;20047;-79
2021/03/20 09:15:08;;;;;;;13.23;7.70;;;;;;;33.25;13.01;100786.13;5110561;28;20039;-74
2021/03/20 09:18:16;;;;;;;8.00;7.20;;;;;;;32.02;13.64;100790.34;5109316;28;20062;-73
2021/03/20 09:21:20;;;;;;;10.65;7.38;;;;;;;31.95;13.52;100789.69;5092898;28;20051;-73
2021/03/20 09:24:29;;;;;;;8.57;7.38;;;;;;;28.24;15.59;100797.75;5093705;28;20047;-74
2021/03/20 09:28:08;;;;;;;14.20;8.27;;;;;;;24.32;19.27;100803.78;5081435;28;20047;-73
2021/03/20 09:31:33;;;;;;;8.55;7.65;;;;;;;20.64;21.84;100807.75;5080666;28;20062;-73
2021/03/20 09:34:46;;;;;;;13.38;9.20;;;;;;;18.72;24.92;100809.06;5093540;28;20047;-73
2021/03/20 09:37:53;;;;;;;12.85;10.25;;;;;;;17.79;26.79;100808.88;5093597;28;20043;-73
2021/03/20 09:40:58;;;;;;;9.05;8.00;;;;;;;16.62;27.62;100810.78;5093584;28;20043;-73
2021/03/20 09:44:02;;;;;;;11.23;8.93;;;;;;;15.84;29.75;100811.78;5093522;28;20486;-73
2021/03/20 09:47:33;;;;;;;14.38;9.48;;;;;;;15.74;30.47;100804.75;5093415;28;20059;-73
2021/03/20 09:50:37;;;;;;;13.88;9.48;;;;;;;15.49;31.45;100809.97;5081033;28;20387;-74
2021/03/20 09:53:42;;;;;;;11.48;10.27;;;;;;;15.21;31.88;100804.75;5093464;28;20051;-74
2021/03/20 09:56:46;;;;;;;16.88;9.68;;;;;;;14.94;32.42;100806.47;5080884;28;20044;-74
2021/03/20 09:59:50;;;;;;;12.90;9.75;;;;;;;14.94;32.09;100801.06;5069064;28;20055;-73
2021/03/20 10:02:55;;;;;;;10.88;9.77;;;;;;;14.41;33.21;100801.91;5093365;28;20047;-74
2021/03/20 10:06:26;;;;;;;11.95;10.02;;;;;;;14.33;33.94;100813.44;5080710;28;20047;-74
2021/03/20 10:09:31;;;;;;;10.10;9.10;;;;;;;13.92;34.15;100808.44;5093284;28;20387;-74
2021/03/20 10:12:45;;;;;;;12.30;8.60;;;;;;;13.82;32.94;100811.13;5069331;28;20043;-73
2021/03/20 10:15:57;;;;;;;10.75;8.93;;;;;;;13.64;32.66;100818.25;5092894;28;20047;-74
2021/03/20 10:19:12;;;;;;;9.85;8.80;;;;;;;13.25;33.02;100813.84;5093114;28;20055;-73
2021/03/20 10:22:31;;;;;;;10.95;9.30;;;;;;;13.15;34.31;100808.44;5080194;28;20387;-73
2021/03/20 10:25:43;;;;;;;11.35;8.57;;;;;;;13.20;35.05;100810.72;5080435;28;20067;-73
2021/03/20 10:28:56;;;;;;;9.38;8.35;;;;;;;13.19;34.48;100804.47;5093297;28;20486;-74
2021/03/20 10:32:14;;;;;;;10.50;8.85;;;;;;;13.03;34.45;100813.06;5095066;28;20051;-73
2021/03/20 10:35:20;;;;;;;10.50;8.48;;;;;;;12.81;35.57;100807.91;5096651;28;20039;-73
2021/03/20 10:38:25;;;;;;;9.40;8.40;;;;;;;12.70;36.17;100812.56;5084039;28;20070;-73
2021/03/20 10:41:36;;;;;;;10.23;8.32;;;;;;;12.70;36.21;100794.56;5096663;28;20051;-72
2021/03/20 10:44:43;;;;;;;11.52;8.18;;;;;;;12.52;36.34;100803.44;5096726;28;20055;-73
2021/03/20 10:47:48;;;;;;;10.27;8.20;;;;;;;12.42;36.63;100795.28;5084231;28;20059;-74
2021/03/20 10:51:05;;;;;;;9.85;8.32;;;;;;;12.78;36.31;100801.94;5096595;28;20177;-72
2021/03/20 10:54:15;;;;;;;11.20;7.78;;;;;;;13.23;35.22;100792.44;5083673;28;20051;-74
2021/03/20 10:57:27;;;;;;;9.57;7.38;;;;;;;13.20;34.60;100790.00;5096429;28;20047;-72
2021/03/20 11:00:41;;;;;;;8.52;7.18;;;;;;;13.23;35.37;100788.88;5096370;28;20047;-72
2021/03/20 11:03:47;;;;;;;9.63;7.68;;;;;;;12.85;33.92;100786.94;5096343;28;20054;-72
2021/03/20 11:06:56;;;;;;;12.45;7.38;;;;;;;12.95;33.82;100780.59;5096617;28;20067;-72
2021/03/20 11:10:10;;;;;;;12.68;7.43;;;;;;;12.70;33.77;100791.88;5083454;28;20051;-72
2021/03/20 11:13:17;;;;;;;9.02;7.22;;;;;;;12.39;34.12;100788.34;5096218;28;20371;-72
2021/03/20 11:16:25;;;;;;;9.15;7.38;;;;;;;12.60;33.61;100779.34;5096156;28;20463;-73
2021/03/20 11:19:37;;;;;;;9.95;7.65;;;;;;;12.26;33.57;100778.81;5096106;28;20047;-72
2021/03/20 11:22:42;;;;;;;11.73;7.50;;;;;;;12.40;33.99;100768.53;5096073;28;20051;-72
2021/03/20 11:25:47;;;;;;;11.80;8.68;;;;;;;12.57;34.93;100766.16;5095919;28;20043;-72
2021/03/20 11:29:04;;;;;;;7.65;6.85;;;;;;;12.56;33.99;100767.16;5095801;28;20043;-72
2021/03/20 11:32:21;;;;;;;11.48;7.85;;;;;;;12.49;34.02;100747.16;5095282;28;20051;-71
2021/03/20 11:35:33;;;;;;;9.27;7.50;;;;;;;12.51;33.49;100751.41;5095499;28;20059;-74
2021/03/20 11:38:38;;;;;;;12.55;7.43;;;;;;;12.27;32.59;100751.75;5095572;28;20071;-75
2021/03/20 11:41:44;;;;;;;8.70;7.13;;;;;;;12.30;33.10;100743.41;5095406;28;20494;-74
2021/03/20 11:44:50;;;;;;;8.60;7.35;;;;;;;12.54;33.33;100740.34;5082663;28;20403;-74
2021/03/20 11:47:58;;;;;;;8.63;7.28;;;;;;;12.19;34.12;100740.81;5082897;28;20059;-74
2021/03/20 11:51:06;;;;;;;8.68;7.78;;;;;;;11.99;33.94;100739.03;5095493;28;20048;-74
2021/03/20 11:54:27;;;;;;;9.88;6.82;;;;;;;11.79;33.74;100741.75;5082760;28;20051;-73
2021/03/20 11:57:36;;;;;;;13.30;7.55;;;;;;;11.59;34.82;100730.84;5095135;28;20047;-74
2021/03/20 12:00:44;;;;;;;10.23;8.20;;;;;;;11.65;35.23;100724.09;5095234;28;20414;-74
2021/03/20 12:03:49;;;;;;;9.63;8.40;;;;;;;11.81;34.60;100721.78;5095283;28;20201;-74
2021/03/20 12:07:24;;;;;;;9.45;7.60;;;;;;;11.87;32.66;100710.53;5082764;28;20059;-74
2021/03/20 12:10:29;;;;;;;11.95;8.23;;;;;;;12.04;32.73;100712.56;5097163;28;20042;-76
2021/03/20 12:13:45;;;;;;;11.77;7.45;;;;;;;11.68;32.98;100705.88;5082060;28;20047;-72
2021/03/20 12:17:06;;;;;;;10.27;7.50;;;;;;;11.75;33.38;100700.84;5102994;28;20040;-75
2021/03/20 12:20:26;;;;;;;9.57;7.35;;;;;;;11.85;33.29;100685.56;5107685;28;20058;-76
2021/03/20 12:23:32;;;;;;;15.07;8.73;;;;;;;11.66;34.75;100691.69;5115527;28;20051;-75
2021/03/20 12:26:36;;;;;;;21.50;17.67;;;;;;;11.57;35.30;100679.03;5094913;28;20055;-75
2021/03/20 12:29:45;;;;;;;9.18;8.18;;;;;;;11.41;35.30;100669.72;5095176;28;20040;-76
2021/03/20 12:32:51;;;;;;;10.80;8.18;;;;;;;11.53;35.35;100669.53;5094447;28;20055;-74
2021/03/20 12:35:56;;;;;;;10.25;7.68;;;;;;;11.48;34.34;100666.38;5094492;28;20047;-74
2021/03/20 12:39:01;;;;;;;9.07;6.78;;;;;;;11.39;34.58;100655.56;5094868;28;20055;-74
2021/03/20 12:42:06;;;;;;;8.27;7.20;;;;;;;11.68;34.25;100648.53;5094964;28;20051;-74
2021/03/20 12:45:20;;;;;;;8.77;7.13;;;;;;;11.69;33.51;100645.75;5094847;28;20063;-74
2021/03/20 12:48:26;;;;;;;9.38;7.38;;;;;;;11.57;33.51;100638.72;5082318;28;20055;-78
2021/03/20 12:51:30;;;;;;;10.10;7.57;;;;;;;11.39;33.65;100639.44;5094809;28;20047;-73
2021/03/20 12:54:42;;;;;;;11.20;8.50;;;;;;;11.43;35.23;100630.16;5094032;28;20478;-77
2021/03/20 12:57:47;;;;;;;13.45;7.70;;;;;;;11.68;34.86;100629.72;5094383;28;20043;-76
2021/03/20 13:00:51;;;;;;;25.83;7.63;;;;;;;11.81;34.11;100616.03;5094616;28;20047;-77
2021/03/20 13:03:55;;;;;;;12.10;7.38;;;;;;;11.84;35.24;100623.84;5093753;28;20094;-77
2021/03/20 13:07:00;;;;;;;11.27;7.68;;;;;;;11.76;32.87;100616.47;5094574;28;20051;-76
2021/03/20 13:10:05;;;;;;;10.68;7.45;;;;;;;11.90;33.19;100608.00;5082070;28;20055;-75
2021/03/20 13:13:10;;;;;;;10.88;7.63;;;;;;;12.02;33.50;100596.19;5082009;28;20486;-75
2021/03/20 13:16:14;;;;;;;10.90;7.35;;;;;;;11.98;33.27;100602.81;5087360;28;20047;-77
2021/03/20 13:19:20;;;;;;;8.70;6.47;;;;;;;11.74;33.77;100581.66;5104409;28;20078;-79
2021/03/20 13:22:24;;;;;;;9.82;7.80;;;;;;;11.85;33.78;100586.03;5089130;28;20055;-77
2021/03/20 13:25:38;;;;;;;8.23;6.80;;;;;;;12.07;32.31;100574.22;5110867;28;20047;-74
2021/03/20 13:28:43;;;;;;;;;;;;;;;12.05;31.99;100577.03;5102548;28;20047;-78
2021/03/20 13:31:48;;;;;;;31.17;7.15;;;;;;;12.23;31.88;100569.16;5081059;28;19916;-76
2021/03/20 13:34:53;;;;;;;7.95;5.88;;;;;;;12.60;30.83;100574.69;5093331;28;20055;-75
2021/03/20 13:37:58;;;;;;;25.75;4.93;;;;;;;12.34;37.65;100612.09;5101613;28;20039;-75
2021/03/20 13:41:03;;;;;;;46.72;19.45;;;;;;;11.71;40.44;100598.03;5100501;28;20517;-75
2021/03/20 13:44:07;;;;;;;26.45;6.30;;;;;;;10.74;43.14;100621.75;5100980;28;20404;-74
2021/03/20 13:47:12;;;;;;;7.38;3.72;;;;;;;10.66;45.65;100618.88;5113173;28;20046;-73
2021/03/20 13:50:19;;;;;;;15.48;3.70;;;;;;;10.49;46.43;100629.31;5113920;28;20047;-72
2021/03/20 13:53:26;;;;;;;10.65;3.78;;;;;;;10.12;47.42;100623.44;5113894;28;20494;-73
2021/03/20 13:56:30;;;;;;;10.15;3.33;;;;;;;10.04;48.18;100637.44;5101532;28;20050;-75
2021/03/20 13:59:35;;;;;;;13.30;4.05;;;;;;;9.82;48.74;100640.16;5114074;28;20051;-75
2021/03/20 14:02:39;;;;;;;12.57;4.00;;;;;;;9.83;49.95;100640.03;5114159;28;20050;-74
2021/03/20 14:05:43;;;;;;;13.68;3.75;;;;;;;9.95;49.75;100648.91;5103895;28;20481;-74
2021/03/20 14:08:47;;;;;;;9.10;4.35;;;;;;;9.69;51.03;100648.31;5105603;28;20046;-75
2021/03/20 14:11:52;;;;;;;12.98;3.45;;;;;;;9.76;51.03;100644.16;5118082;28;20050;-75
2021/03/20 14:14:57;;;;;;;12.75;4.13;;;;;;;9.38;51.46;100649.00;5105290;28;20047;-73
2021/03/20 14:18:02;;;;;;;8.60;3.72;;;;;;;9.38;51.92;100646.31;5118103;28;20063;-73
2021/03/20 14:21:08;;;;;;;7.93;3.70;;;;;;;9.57;50.85;100641.25;5118088;28;20070;-76
2021/03/20 14:24:13;;;;;;;11.55;5.35;;;;;;;9.70;49.33;100651.84;5117915;28;20050;-75
2021/03/20 14:27:17;;;;;;;23.40;5.65;;;;;;;9.42;48.39;100655.00;5117861;28;20481;-75
2021/03/20 14:30:31;;;;;;;21.92;4.78;;;;;;;9.21;50.15;100648.63;5118047;28;20047;-74
2021/03/20 14:33:36;;;;;;;15.55;4.53;;;;;;;9.35;50.69;100649.28;5117549;28;20059;-74
2021/03/20 14:36:43;;;;;;;6.05;3.75;;;;;;;9.18;52.08;100637.16;5117768;28;20054;-74
2021/03/20 14:39:48;;;;;;;11.50;4.50;;;;;;;9.39;49.01;100644.50;5105075;28;20054;-77
2021/03/20 14:42:53;;;;;;;5.68;3.95;;;;;;;9.51;48.80;100644.41;5117566;28;20054;-74
2021/03/20 14:46:00;;;;;;;6.00;4.10;;;;;;;9.61;47.83;100636.47;5117192;28;20067;-75
2021/03/20 14:49:07;;;;;;;7.40;4.38;;;;;;;9.53;46.86;100629.06;5104845;28;20484;-75
2021/03/20 14:52:11;;;;;;;8.65;4.43;;;;;;;9.64;46.14;100630.88;5095479;28;20042;-78
2021/03/20 14:55:17;;;;;;;8.48;4.28;;;;;;;9.81;45.84;100627.72;5103223;28;20588;-78
2021/03/20 14:58:22;;;;;;;8.30;4.57;;;;;;;9.83;45.14;100623.94;5106897;28;20046;-77